Portada
METAR-TAF:

METAR-TAF

Aeropuertos :

Kanoya, Japón

latitud: 31-22N, longitud: 130-50E, altitud: 65 m

Observación

El informe se hizo hace 5 horas y 32 minutos, a las 01:16 UTC
Viento 13 kt del oeste
Temperatura 23°C
Humedad 57%
Presión 1009 hPa
Visibilidad 10 km o más
Escasas nubes a una altura de 3000 ft

METAR: RJFY 280116Z 27013KT 9999 FEW030 23/14 Q1009 RMK 1CU030 A2982 VOLCANIC ASH 20KM SE MOV SE

Hora: 15:48 (06:48 UTC)


TAF: falta

Observaciones y pronósticos meteorológicos de más de 4000 aeropuertos (mensajes METAR y TAF).

Los puntos amarillos y rojos representan las estaciones disponibles.

Ponga el ratón en el punto deseado para ver el nombre de la estación.

Haga clic para ver las observaciones y los pronósticos meteorológicos.

Para cambiar el mapa : haga clic en los botones verdes con una cruz de color negro para hacer un zoom, en el botón verde con un guión para alejar o en las flechas verdes para mapas adyacentes.


METAR-TAF: